Impacts TAF Board
For situational awareness. Not to be used for flight planning purposes.
IDs:

KPDX - Portland Intl Arpt, OR, US

Issued at 1729 UTC 18 Jun 2019
Updated at 1939 UTC 18 Jun 2019
Potential Impact None Slight Moderate High
Time1853Z 18/20Z 18/21Z 18/22Z 18/23Z 19/00Z 19/01Z 19/02Z 19/03Z 19/04Z 19/05Z 19/06Z 19/07Z 19/08Z>>
Type OBS PRVL PRVL PRVL PRVL PRVL PRVL PRVL PRVL PRVL PRVL PRVL PRVL PRVL
VIS 10 >6 >6 >6 >6 >6 >6 >6 >6 >6 >6 >6 >6 >6
CIG 34 35 -- -- -- -- -- -- -- -- -- -- -- --
Cover BKN BKN SCT SCT SCT SCT SCT SCT SCT SCT SCT SCT SCT SCT
FltCat VFR VFR VFR VFR VFR VFR VFR VFR VFR VFR VFR VFR VFR VFR
WX -- -- -- -- -- -- -- -- -- -- -- -- -- --
WDir 340 320 300 300 300 300 300 330 330 330 330 330 320 320
WSpd 6 7 10 10 10 10 10 13 13 13 13 13 7 7
WGst -- -- -- -- -- -- -- 19 19 19 19 19 -- --
Raw TAF
KPDX 181729Z 1818/1918 32007KT P6SM BKN035 BKN050
  FM182100 30010KT P6SM SCT040
  FM190200 33013G19KT P6SM SCT250
  FM190700 32007KT P6SM SCT250
  FM191100 31005KT P6SM OVC015


Raw METAR
KPDX 181853Z 34006KT 10SM BKN034 BKN250 20/09 A3025 RMK AO2 SLP241 T02000094
KPDX 181753Z 31011G16KT 10SM BKN030 19/10 A3024 RMK AO2 SLP239 T01890100 10194 20161 50000
KPDX 181653Z 33007KT 10SM BKN030 BKN060 18/11 A3024 RMK AO2 SLP239 T01830111

METAR Board
Radar Display
Forecast Discussion
For situational awareness. Not to be used for flight planning purposes.